sensor_id;sensor_type;location;lat;lon;timestamp;pressure;altitude;pressure_sealevel;temperature
18161;BMP280;9205;52.032;4.314;2023-10-31T00:01:56;99607.88;;;13.01
18161;BMP280;9205;52.032;4.314;2023-10-31T00:04:25;99613.03;;;12.99
18161;BMP280;9205;52.032;4.314;2023-10-31T00:06:52;99607.88;;;13.01
18161;BMP280;9205;52.032;4.314;2023-10-31T00:09:19;99610.41;;;13.01
18161;BMP280;9205;52.032;4.314;2023-10-31T00:11:46;99618.13;;;12.99
18161;BMP280;9205;52.032;4.314;2023-10-31T00:14:14;99620.53;;;13.02
18161;BMP280;9205;52.032;4.314;2023-10-31T00:16:41;99619.50;;;13.06
18161;BMP280;9205;52.032;4.314;2023-10-31T00:19:08;99621.13;;;13.07
18161;BMP280;9205;52.032;4.314;2023-10-31T00:21:36;99614.22;;;13.09
18161;BMP280;9205;52.032;4.314;2023-10-31T00:24:04;99631.25;;;13.09
18161;BMP280;9205;52.032;4.314;2023-10-31T00:26:32;99627.81;;;13.10
18161;BMP280;9205;52.032;4.314;2023-10-31T00:28:59;99625.41;;;13.07
18161;BMP280;9205;52.032;4.314;2023-10-31T00:31:26;99633.94;;;13.06
18161;BMP280;9205;52.032;4.314;2023-10-31T00:33:53;99629.69;;;13.06
18161;BMP280;9205;52.032;4.314;2023-10-31T00:36:21;99627.88;;;13.08
18161;BMP280;9205;52.032;4.314;2023-10-31T00:38:49;99631.97;;;13.11
18161;BMP280;9205;52.032;4.314;2023-10-31T00:41:17;99641.22;;;13.13
18161;BMP280;9205;52.032;4.314;2023-10-31T00:43:44;99632.69;;;13.14
18161;BMP280;9205;52.032;4.314;2023-10-31T00:46:11;99627.41;;;13.17
18161;BMP280;9205;52.032;4.314;2023-10-31T00:48:38;99632.38;;;13.20
18161;BMP280;9205;52.032;4.314;2023-10-31T00:51:06;99638.28;;;13.21
18161;BMP280;9205;52.032;4.314;2023-10-31T00:53:33;99645.03;;;13.22
18161;BMP280;9205;52.032;4.314;2023-10-31T00:56:03;99641.72;;;13.20
18161;BMP280;9205;52.032;4.314;2023-10-31T00:58:30;99643.53;;;13.18
18161;BMP280;9205;52.032;4.314;2023-10-31T01:00:58;99652.00;;;13.18
18161;BMP280;9205;52.032;4.314;2023-10-31T01:03:25;99654.69;;;13.15
18161;BMP280;9205;52.032;4.314;2023-10-31T01:05:52;99662.44;;;13.14
18161;BMP280;9205;52.032;4.314;2023-10-31T01:08:19;99662.53;;;13.12
18161;BMP280;9205;52.032;4.314;2023-10-31T01:10:48;99665.06;;;13.12
18161;BMP280;9205;52.032;4.314;2023-10-31T01:13:17;99670.16;;;13.12
18161;BMP280;9205;52.032;4.314;2023-10-31T01:15:44;99661.63;;;13.13
18161;BMP280;9205;52.032;4.314;2023-10-31T01:18:11;99669.31;;;13.12
18161;BMP280;9205;52.032;4.314;2023-10-31T01:20:39;99673.69;;;13.10
18161;BMP280;9205;52.032;4.314;2023-10-31T01:23:06;99681.47;;;13.07
18161;BMP280;9205;52.032;4.314;2023-10-31T01:25:33;99690.69;;;13.09
18161;BMP280;9205;52.032;4.314;2023-10-31T01:28:00;99686.59;;;13.07
18161;BMP280;9205;52.032;4.314;2023-10-31T01:30:29;99684.84;;;13.07
18161;BMP280;9205;52.032;4.314;2023-10-31T01:32:56;99690.88;;;13.06
18161;BMP280;9205;52.032;4.314;2023-10-31T01:35:23;99695.28;;;13.03
18161;BMP280;9205;52.032;4.314;2023-10-31T01:37:50;99695.44;;;13.00
18161;BMP280;9205;52.032;4.314;2023-10-31T01:40:18;99703.28;;;12.95
18161;BMP280;9205;52.032;4.314;2023-10-31T01:42:45;99700.00;;;12.93
18161;BMP280;9205;52.032;4.314;2023-10-31T01:45:13;99701.78;;;12.91
18161;BMP280;9205;52.032;4.314;2023-10-31T01:47:45;99717.22;;;12.88
18161;BMP280;9205;52.032;4.314;2023-10-31T01:50:16;99719.06;;;12.85
18161;BMP280;9205;52.032;4.314;2023-10-31T01:52:44;99714.13;;;12.82
18161;BMP280;9205;52.032;4.314;2023-10-31T01:55:12;99716.75;;;12.80
18161;BMP280;9205;52.032;4.314;2023-10-31T01:57:40;99721.06;;;12.78
18161;BMP280;9205;52.032;4.314;2023-10-31T02:00:09;99720.25;;;12.78
18161;BMP280;9205;52.032;4.314;2023-10-31T02:02:42;99728.81;;;12.77
18161;BMP280;9205;52.032;4.314;2023-10-31T02:05:10;99722.81;;;12.78
18161;BMP280;9205;52.032;4.314;2023-10-31T02:07:37;99727.00;;;12.79
18161;BMP280;9205;52.032;4.314;2023-10-31T02:10:05;99734.56;;;12.80
18161;BMP280;9205;52.032;4.314;2023-10-31T02:12:34;99740.44;;;12.82
18161;BMP280;9205;52.032;4.314;2023-10-31T02:15:02;99740.34;;;12.84
18161;BMP280;9205;52.032;4.314;2023-10-31T02:17:30;99742.97;;;12.82
18161;BMP280;9205;52.032;4.314;2023-10-31T02:19:58;99737.22;;;12.79
18161;BMP280;9205;52.032;4.314;2023-10-31T02:22:27;99741.47;;;12.78
18161;BMP280;9205;52.032;4.314;2023-10-31T02:24:54;99744.22;;;12.74
18161;BMP280;9205;52.032;4.314;2023-10-31T02:27:22;99740.66;;;12.78
18161;BMP280;9205;52.032;4.314;2023-10-31T02:29:49;99734.03;;;12.74
18161;BMP280;9205;52.032;4.314;2023-10-31T02:32:16;99735.78;;;12.73
18161;BMP280;9205;52.032;4.314;2023-10-31T02:34:45;99731.47;;;12.74
18161;BMP280;9205;52.032;4.314;2023-10-31T02:37:12;99734.88;;;12.74
18161;BMP280;9205;52.032;4.314;2023-10-31T02:39:40;99735.69;;;12.75
18161;BMP280;9205;52.032;4.314;2023-10-31T02:42:08;99748.44;;;12.75
18161;BMP280;9205;52.032;4.314;2023-10-31T02:44:35;99745.88;;;12.75
18161;BMP280;9205;52.032;4.314;2023-10-31T02:47:02;99744.38;;;12.71
18161;BMP280;9205;52.032;4.314;2023-10-31T02:49:29;99738.66;;;12.66
18161;BMP280;9205;52.032;4.314;2023-10-31T02:51:56;99736.09;;;12.66
18161;BMP280;9205;52.032;4.314;2023-10-31T02:54:24;99738.06;;;12.61
18161;BMP280;9205;52.032;4.314;2023-10-31T02:56:52;99743.16;;;12.61
18161;BMP280;9205;52.032;4.314;2023-10-31T02:59:19;99740.59;;;12.61
18161;BMP280;9205;52.032;4.314;2023-10-31T03:01:46;99755.97;;;12.59
18161;BMP280;9205;52.032;4.314;2023-10-31T03:04:13;99758.44;;;12.61
18161;BMP280;9205;52.032;4.314;2023-10-31T03:06:41;99760.38;;;12.56
18161;BMP280;9205;52.032;4.314;2023-10-31T03:09:08;99760.38;;;12.56
18161;BMP280;9205;52.032;4.314;2023-10-31T03:11:35;99760.63;;;12.50
18161;BMP280;9205;52.032;4.314;2023-10-31T03:14:04;99759.75;;;12.51
18161;BMP280;9205;52.032;4.314;2023-10-31T03:16:31;99765.00;;;12.48
18161;BMP280;9205;52.032;4.314;2023-10-31T03:18:59;99765.88;;;12.47
18161;BMP280;9205;52.032;4.314;2023-10-31T03:21:26;99774.41;;;12.46
18161;BMP280;9205;52.032;4.314;2023-10-31T03:23:53;99775.22;;;12.47
18161;BMP280;9205;52.032;4.314;2023-10-31T03:26:21;99760.91;;;12.44
18161;BMP280;9205;52.032;4.314;2023-10-31T03:28:49;99762.66;;;12.44
18161;BMP280;9205;52.032;4.314;2023-10-31T03:31:18;99758.47;;;12.43
18161;BMP280;9205;52.032;4.314;2023-10-31T03:33:45;99768.47;;;12.46
18161;BMP280;9205;52.032;4.314;2023-10-31T03:36:12;99767.53;;;12.48
18161;BMP280;9205;52.032;4.314;2023-10-31T03:38:39;99763.94;;;12.52
18161;BMP280;9205;52.032;4.314;2023-10-31T03:41:08;99762.16;;;12.54
18161;BMP280;9205;52.032;4.314;2023-10-31T03:43:35;99766.28;;;12.56
18161;BMP280;9205;52.032;4.314;2023-10-31T03:46:04;99763.63;;;12.59
18161;BMP280;9205;52.032;4.314;2023-10-31T03:48:32;99759.34;;;12.60
18161;BMP280;9205;52.032;4.314;2023-10-31T03:51:00;99764.34;;;12.61
18161;BMP280;9205;52.032;4.314;2023-10-31T03:53:27;99768.50;;;12.64
18161;BMP280;9205;52.032;4.314;2023-10-31T03:55:54;99768.41;;;12.65
18161;BMP280;9205;52.032;4.314;2023-10-31T03:58:21;99774.41;;;12.64
18161;BMP280;9205;52.032;4.314;2023-10-31T04:00:49;99780.41;;;12.63
18161;BMP280;9205;52.032;4.314;2023-10-31T04:03:17;99787.28;;;12.61
18161;BMP280;9205;52.032;4.314;2023-10-31T04:05:45;99779.59;;;12.63
18161;BMP280;9205;52.032;4.314;2023-10-31T04:08:12;99792.31;;;12.63
18161;BMP280;9205;52.032;4.314;2023-10-31T04:10:39;99791.34;;;12.65
18161;BMP280;9205;52.032;4.314;2023-10-31T04:13:07;99794.72;;;12.66
18161;BMP280;9205;52.032;4.314;2023-10-31T04:15:34;99799.88;;;12.64
18161;BMP280;9205;52.032;4.314;2023-10-31T04:18:01;99807.53;;;12.64
18161;BMP280;9205;52.032;4.314;2023-10-31T04:20:29;99804.97;;;12.64
18161;BMP280;9205;52.032;4.314;2023-10-31T04:22:57;99815.25;;;12.63
18161;BMP280;9205;52.032;4.314;2023-10-31T04:25:24;99814.34;;;12.64
18161;BMP280;9205;52.032;4.314;2023-10-31T04:27:52;99821.06;;;12.65
18161;BMP280;9205;52.032;4.314;2023-10-31T04:30:20;99810.75;;;12.68
18161;BMP280;9205;52.032;4.314;2023-10-31T04:32:47;99813.31;;;12.68
18161;BMP280;9205;52.032;4.314;2023-10-31T04:35:14;99824.38;;;12.67
18161;BMP280;9205;52.032;4.314;2023-10-31T04:37:42;99819.28;;;12.67
18161;BMP280;9205;52.032;4.314;2023-10-31T04:40:12;99824.47;;;12.65
18161;BMP280;9205;52.032;4.314;2023-10-31T04:42:40;99833.09;;;12.63
18161;BMP280;9205;52.032;4.314;2023-10-31T04:45:08;99833.00;;;12.64
18161;BMP280;9205;52.032;4.314;2023-10-31T04:47:36;99839.00;;;12.63
18161;BMP280;9205;52.032;4.314;2023-10-31T04:50:04;99848.22;;;12.66
18161;BMP280;9205;52.032;4.314;2023-10-31T04:52:31;99839.84;;;12.64
18161;BMP280;9205;52.032;4.314;2023-10-31T04:54:58;99845.06;;;12.61
18161;BMP280;9205;52.032;4.314;2023-10-31T04:57:26;99845.13;;;12.59
18161;BMP280;9205;52.032;4.314;2023-10-31T04:59:54;99856.22;;;12.58
18161;BMP280;9205;52.032;4.314;2023-10-31T05:02:23;99865.44;;;12.61
18161;BMP280;9205;52.032;4.314;2023-10-31T05:04:50;99865.44;;;12.61
18161;BMP280;9205;52.032;4.314;2023-10-31T05:07:18;99862.00;;;12.62
18161;BMP280;9205;52.032;4.314;2023-10-31T05:09:45;99854.34;;;12.62
18161;BMP280;9205;52.032;4.314;2023-10-31T05:12:12;99861.03;;;12.64
18161;BMP280;9205;52.032;4.314;2023-10-31T05:14:41;99872.78;;;12.67
18161;BMP280;9205;52.032;4.314;2023-10-31T05:17:08;99866.88;;;12.66
18161;BMP280;9205;52.032;4.314;2023-10-31T05:19:35;99873.84;;;12.63
18161;BMP280;9205;52.032;4.314;2023-10-31T05:22:03;99867.22;;;12.59
18161;BMP280;9205;52.032;4.314;2023-10-31T05:24:30;99873.16;;;12.59
18161;BMP280;9205;52.032;4.314;2023-10-31T05:26:58;99877.31;;;12.60
18161;BMP280;9205;52.032;4.314;2023-10-31T05:29:25;99881.72;;;12.57
18161;BMP280;9205;52.032;4.314;2023-10-31T05:31:53;99883.13;;;12.64
18161;BMP280;9205;52.032;4.314;2023-10-31T05:34:20;99877.97;;;12.65
18161;BMP280;9205;52.032;4.314;2023-10-31T05:36:48;99883.25;;;12.61
18161;BMP280;9205;52.032;4.314;2023-10-31T05:39:15;99887.41;;;12.63
18161;BMP280;9205;52.032;4.314;2023-10-31T05:41:42;99887.31;;;12.65
18161;BMP280;9205;52.032;4.314;2023-10-31T05:44:09;99882.19;;;12.66
18161;BMP280;9205;52.032;4.314;2023-10-31T05:46:38;99891.72;;;12.61
18161;BMP280;9205;52.032;4.314;2023-10-31T05:49:08;99890.06;;;12.60
18161;BMP280;9205;52.032;4.314;2023-10-31T05:51:35;99907.09;;;12.60
18161;BMP280;9205;52.032;4.314;2023-10-31T05:54:02;99896.13;;;12.58
18161;BMP280;9205;52.032;4.314;2023-10-31T05:56:30;99897.78;;;12.59
18161;BMP280;9205;52.032;4.314;2023-10-31T05:58:57;99907.97;;;12.59
18161;BMP280;9205;52.032;4.314;2023-10-31T06:01:24;99897.72;;;12.60
18161;BMP280;9205;52.032;4.314;2023-10-31T06:03:51;99896.09;;;12.59
18161;BMP280;9205;52.032;4.314;2023-10-31T06:06:20;99900.25;;;12.60
18161;BMP280;9205;52.032;4.314;2023-10-31T06:08:47;99900.34;;;12.59
18161;BMP280;9205;52.032;4.314;2023-10-31T06:11:14;99904.63;;;12.58
18161;BMP280;9205;52.032;4.314;2023-10-31T06:13:41;99913.06;;;12.59
18161;BMP280;9205;52.032;4.314;2023-10-31T06:16:09;99915.63;;;12.59
18161;BMP280;9205;52.032;4.314;2023-10-31T06:18:38;99910.72;;;12.54
18161;BMP280;9205;52.032;4.314;2023-10-31T06:21:06;99909.91;;;12.54
18161;BMP280;9205;52.032;4.314;2023-10-31T06:23:36;99924.41;;;12.52
18161;BMP280;9205;52.032;4.314;2023-10-31T06:26:03;99929.59;;;12.50
18161;BMP280;9205;52.032;4.314;2023-10-31T06:28:31;99939.13;;;12.46
18161;BMP280;9205;52.032;4.314;2023-10-31T06:31:00;99939.97;;;12.46
18161;BMP280;9205;52.032;4.314;2023-10-31T06:33:28;99928.75;;;12.50
18161;BMP280;9205;52.032;4.314;2023-10-31T06:35:55;99938.03;;;12.51
18161;BMP280;9205;52.032;4.314;2023-10-31T06:38:22;99944.00;;;12.51
18161;BMP280;9205;52.032;4.314;2023-10-31T06:40:51;99950.78;;;12.51
18161;BMP280;9205;52.032;4.314;2023-10-31T06:43:18;99963.47;;;12.52
18161;BMP280;9205;52.032;4.314;2023-10-31T06:45:45;99950.75;;;12.52
18161;BMP280;9205;52.032;4.314;2023-10-31T06:48:13;99954.09;;;12.53
18161;BMP280;9205;52.032;4.314;2023-10-31T06:50:40;99954.09;;;12.53
18161;BMP280;9205;52.032;4.314;2023-10-31T06:53:07;99952.25;;;12.56
18161;BMP280;9205;52.032;4.314;2023-10-31T06:55:34;99954.72;;;12.58
18161;BMP280;9205;52.032;4.314;2023-10-31T06:58:03;99957.25;;;12.58
18161;BMP280;9205;52.032;4.314;2023-10-31T07:00:30;99954.59;;;12.61
18161;BMP280;9205;52.032;4.314;2023-10-31T07:02:57;99964.72;;;12.62
18161;BMP280;9205;52.032;4.314;2023-10-31T07:05:25;99960.47;;;12.63
18161;BMP280;9205;52.032;4.314;2023-10-31T07:07:52;99974.00;;;12.63
18161;BMP280;9205;52.032;4.314;2023-10-31T07:10:19;99979.00;;;12.66
18161;BMP280;9205;52.032;4.314;2023-10-31T07:12:46;99972.84;;;12.70
18161;BMP280;9205;52.032;4.314;2023-10-31T07:15:16;99984.00;;;12.68
18161;BMP280;9205;52.032;4.314;2023-10-31T07:17:43;99990.84;;;12.67
18161;BMP280;9205;52.032;4.314;2023-10-31T07:20:11;99998.28;;;12.72
18161;BMP280;9205;52.032;4.314;2023-10-31T07:22:38;99993.25;;;12.70
18161;BMP280;9205;52.032;4.314;2023-10-31T07:25:06;100000.69;;;12.75
18161;BMP280;9205;52.032;4.314;2023-10-31T07:27:33;100001.59;;;12.74
18161;BMP280;9205;52.032;4.314;2023-10-31T07:30:02;100004.28;;;12.71
18161;BMP280;9205;52.032;4.314;2023-10-31T07:32:31;100007.72;;;12.70
18161;BMP280;9205;52.032;4.314;2023-10-31T07:34:58;100002.63;;;12.70
18161;BMP280;9205;52.032;4.314;2023-10-31T07:37:27;100002.53;;;12.71
18161;BMP280;9205;52.032;4.314;2023-10-31T07:39:54;100000.84;;;12.72
18161;BMP280;9205;52.032;4.314;2023-10-31T07:42:22;99999.19;;;12.71
18161;BMP280;9205;52.032;4.314;2023-10-31T07:44:49;100006.81;;;12.71
18161;BMP280;9205;52.032;4.314;2023-10-31T07:47:16;100005.09;;;12.71
18161;BMP280;9205;52.032;4.314;2023-10-31T07:49:45;100003.31;;;12.73
18161;BMP280;9205;52.032;4.314;2023-10-31T07:52:13;100000.19;;;12.67
18161;BMP280;9205;52.032;4.314;2023-10-31T07:54:40;100009.50;;;12.68
18161;BMP280;9205;52.032;4.314;2023-10-31T07:57:08;100011.84;;;12.72
18161;BMP280;9205;52.032;4.314;2023-10-31T07:59:35;100012.63;;;12.74
18161;BMP280;9205;52.032;4.314;2023-10-31T08:02:03;100014.31;;;12.74
18161;BMP280;9205;52.032;4.314;2023-10-31T08:04:31;100021.16;;;12.73
18161;BMP280;9205;52.032;4.314;2023-10-31T08:06:59;100021.94;;;12.75
18161;BMP280;9205;52.032;4.314;2023-10-31T08:09:27;100020.06;;;12.79
18161;BMP280;9205;52.032;4.314;2023-10-31T08:11:54;100025.00;;;12.82
18161;BMP280;9205;52.032;4.314;2023-10-31T08:14:21;100026.47;;;12.87
18161;BMP280;9205;52.032;4.314;2023-10-31T08:16:49;100018.75;;;12.90
18161;BMP280;9205;52.032;4.314;2023-10-31T08:19:16;100029.50;;;12.97
18161;BMP280;9205;52.032;4.314;2023-10-31T08:21:43;100022.50;;;13.02
18161;BMP280;9205;52.032;4.314;2023-10-31T08:24:11;100033.31;;;13.07
18161;BMP280;9205;52.032;4.314;2023-10-31T08:26:39;100036.63;;;13.09
18161;BMP280;9205;52.032;4.314;2023-10-31T08:29:06;100044.13;;;13.12
18161;BMP280;9205;52.032;4.314;2023-10-31T08:31:33;100036.41;;;13.13
18161;BMP280;9205;52.032;4.314;2023-10-31T08:34:00;100043.09;;;13.16
18161;BMP280;9205;52.032;4.314;2023-10-31T08:36:29;100048.00;;;13.20
18161;BMP280;9205;52.032;4.314;2023-10-31T08:38:56;100043.63;;;13.22
18161;BMP280;9205;52.032;4.314;2023-10-31T08:41:25;100044.38;;;13.26
18161;BMP280;9205;52.032;4.314;2023-10-31T08:43:52;100037.41;;;13.29
18161;BMP280;9205;52.032;4.314;2023-10-31T08:46:19;100034.56;;;13.35
18161;BMP280;9205;52.032;4.314;2023-10-31T08:48:47;100031.53;;;13.45
18161;BMP280;9205;52.032;4.314;2023-10-31T08:51:14;100037.19;;;13.52
18161;BMP280;9205;52.032;4.314;2023-10-31T08:53:42;100044.84;;;13.52
18161;BMP280;9205;52.032;4.314;2023-10-31T08:56:09;100049.75;;;13.56
18161;BMP280;9205;52.032;4.314;2023-10-31T08:58:37;100048.63;;;13.62
18161;BMP280;9205;52.032;4.314;2023-10-31T09:01:05;100062.25;;;13.61
18161;BMP280;9205;52.032;4.314;2023-10-31T09:03:32;100062.44;;;13.58
18161;BMP280;9205;52.032;4.314;2023-10-31T09:05:59;100054.13;;;13.53
18161;BMP280;9205;52.032;4.314;2023-10-31T09:08:28;100064.41;;;13.51
18161;BMP280;9205;52.032;4.314;2023-10-31T09:10:55;100067.84;;;13.50
18161;BMP280;9205;52.032;4.314;2023-10-31T09:13:22;100068.75;;;13.49
18161;BMP280;9205;52.032;4.314;2023-10-31T09:15:50;100086.56;;;13.51
18161;BMP280;9205;52.032;4.314;2023-10-31T09:18:18;100087.38;;;13.51
18161;BMP280;9205;52.032;4.314;2023-10-31T09:20:45;100079.53;;;13.56
18161;BMP280;9205;52.032;4.314;2023-10-31T09:23:12;100081.09;;;13.58
18161;BMP280;9205;52.032;4.314;2023-10-31T09:25:39;100080.13;;;13.61
18161;BMP280;9205;52.032;4.314;2023-10-31T09:28:06;100085.03;;;13.65
18161;BMP280;9205;52.032;4.314;2023-10-31T09:30:33;100088.22;;;13.70
18161;BMP280;9205;52.032;4.314;2023-10-31T09:33:02;100089.72;;;13.74
18161;BMP280;9205;52.032;4.314;2023-10-31T09:35:29;100092.16;;;13.77
18161;BMP280;9205;52.032;4.314;2023-10-31T09:37:56;100090.19;;;13.82
18161;BMP280;9205;52.032;4.314;2023-10-31T09:40:24;100096.06;;;13.84
18161;BMP280;9205;52.032;4.314;2023-10-31T09:42:51;100091.78;;;13.85
18161;BMP280;9205;52.032;4.314;2023-10-31T09:45:18;100094.28;;;13.86
18161;BMP280;9205;52.032;4.314;2023-10-31T09:47:45;100086.53;;;13.88
18161;BMP280;9205;52.032;4.314;2023-10-31T09:50:14;100092.34;;;13.91
18161;BMP280;9205;52.032;4.314;2023-10-31T09:52:41;100092.22;;;13.94
18161;BMP280;9205;52.032;4.314;2023-10-31T09:55:09;100102.41;;;13.94
18161;BMP280;9205;52.032;4.314;2023-10-31T09:57:37;100096.41;;;13.95
18161;BMP280;9205;52.032;4.314;2023-10-31T10:00:06;100104.75;;;13.99
18161;BMP280;9205;52.032;4.314;2023-10-31T10:02:37;100101.38;;;13.98
18161;BMP280;9205;52.032;4.314;2023-10-31T10:05:04;100110.69;;;13.99
18161;BMP280;9205;52.032;4.314;2023-10-31T10:07:34;100120.69;;;14.04
18161;BMP280;9205;52.032;4.314;2023-10-31T10:10:02;100123.31;;;14.02
18161;BMP280;9205;52.032;4.314;2023-10-31T10:12:29;100119.78;;;14.05
18161;BMP280;9205;52.032;4.314;2023-10-31T10:14:57;100127.38;;;14.06
18161;BMP280;9205;52.032;4.314;2023-10-31T10:17:25;100128.91;;;14.10
18161;BMP280;9205;52.032;4.314;2023-10-31T10:20:06;100128.00;;;14.11
18161;BMP280;9205;52.032;4.314;2023-10-31T10:22:39;100135.66;;;14.11
18161;BMP280;9205;52.032;4.314;2023-10-31T10:25:08;100132.97;;;14.14
18161;BMP280;9205;52.032;4.314;2023-10-31T10:27:38;100136.22;;;14.17
18161;BMP280;9205;52.032;4.314;2023-10-31T10:30:07;100132.69;;;14.20
18161;BMP280;9205;52.032;4.314;2023-10-31T10:32:35;100139.47;;;14.21
18161;BMP280;9205;52.032;4.314;2023-10-31T10:35:02;100146.91;;;14.25
18161;BMP280;9205;52.032;4.314;2023-10-31T10:37:38;100139.13;;;14.28
18161;BMP280;9205;52.032;4.314;2023-10-31T10:40:08;100151.38;;;14.39
18161;BMP280;9205;52.032;4.314;2023-10-31T10:42:45;100150.88;;;14.49
18161;BMP280;9205;52.032;4.314;2023-10-31T10:45:14;100156.22;;;14.62
18161;BMP280;9205;52.032;4.314;2023-10-31T10:47:48;100156.50;;;14.73
18161;BMP280;9205;52.032;4.314;2023-10-31T10:50:19;100157.22;;;14.76
18161;BMP280;9205;52.032;4.314;2023-10-31T10:52:55;100154.59;;;14.78
18161;BMP280;9205;52.032;4.314;2023-10-31T10:55:27;100155.19;;;14.83
18161;BMP280;9205;52.032;4.314;2023-10-31T10:58:01;100163.47;;;14.88
18161;BMP280;9205;52.032;4.314;2023-10-31T11:00:30;100148.84;;;14.89
18161;BMP280;9205;52.032;4.314;2023-10-31T11:02:59;100150.38;;;14.93
18161;BMP280;9205;52.032;4.314;2023-10-31T11:05:27;100156.84;;;15.00
18161;BMP280;9205;52.032;4.314;2023-10-31T11:07:57;100151.88;;;14.97
18161;BMP280;9205;52.032;4.314;2023-10-31T11:10:25;100154.41;;;14.97
18161;BMP280;9205;52.032;4.314;2023-10-31T11:12:52;100159.47;;;14.99
18161;BMP280;9205;52.032;4.314;2023-10-31T11:15:21;100164.16;;;14.91
18161;BMP280;9205;52.032;4.314;2023-10-31T11:17:50;100157.16;;;14.94
18161;BMP280;9205;52.032;4.314;2023-10-31T11:20:19;100155.50;;;14.93
18161;BMP280;9205;52.032;4.314;2023-10-31T11:22:47;100156.00;;;15.00
18161;BMP280;9205;52.032;4.314;2023-10-31T11:25:21;100163.31;;;15.07
18161;BMP280;9205;52.032;4.314;2023-10-31T11:27:50;100167.44;;;15.10
18161;BMP280;9205;52.032;4.314;2023-10-31T11:30:22;100157.13;;;15.11
18161;BMP280;9205;52.032;4.314;2023-10-31T11:32:54;100151.94;;;15.13
18161;BMP280;9205;52.032;4.314;2023-10-31T11:35:22;100152.00;;;15.11
18161;BMP280;9205;52.032;4.314;2023-10-31T11:38:00;100162.84;;;15.16
18161;BMP280;9205;52.032;4.314;2023-10-31T11:40:30;100160.06;;;15.21
18161;BMP280;9205;52.032;4.314;2023-10-31T11:42:59;100166.00;;;15.21
18161;BMP280;9205;52.032;4.314;2023-10-31T11:45:33;100168.47;;;15.23
18161;BMP280;9205;52.032;4.314;2023-10-31T11:47:59;100170.78;;;15.29
18161;BMP280;9205;52.032;4.314;2023-10-31T11:50:26;100168.44;;;15.24
18161;BMP280;9205;52.032;4.314;2023-10-31T11:53:03;100165.47;;;15.15
18161;BMP280;9205;52.032;4.314;2023-10-31T11:55:35;100163.34;;;15.23
18161;BMP280;9205;52.032;4.314;2023-10-31T11:58:16;100164.09;;;15.26
18161;BMP280;9205;52.032;4.314;2023-10-31T12:00:45;100174.81;;;15.33
18161;BMP280;9205;52.032;4.314;2023-10-31T12:03:16;100174.13;;;15.29
18161;BMP280;9205;52.032;4.314;2023-10-31T12:05:54;100171.00;;;15.24
18161;BMP280;9205;52.032;4.314;2023-10-31T12:08:26;100172.31;;;15.14
18161;BMP280;9205;52.032;4.314;2023-10-31T12:11:04;100169.63;;;15.00
18161;BMP280;9205;52.032;4.314;2023-10-31T12:13:33;100176.16;;;14.89
18161;BMP280;9205;52.032;4.314;2023-10-31T12:16:00;100181.72;;;14.80
18161;BMP280;9205;52.032;4.314;2023-10-31T12:18:28;100191.34;;;14.75
18161;BMP280;9205;52.032;4.314;2023-10-31T12:20:56;100193.59;;;14.64
18161;BMP280;9205;52.032;4.314;2023-10-31T12:23:23;100189.44;;;14.62
18161;BMP280;9205;52.032;4.314;2023-10-31T12:25:51;100190.56;;;14.56
18161;BMP280;9205;52.032;4.314;2023-10-31T12:28:21;100186.44;;;14.54
18161;BMP280;9205;52.032;4.314;2023-10-31T12:30:50;100189.06;;;14.52
18161;BMP280;9205;52.032;4.314;2023-10-31T12:33:21;100193.75;;;14.43
18161;BMP280;9205;52.032;4.314;2023-10-31T12:35:52;100196.81;;;14.32
18161;BMP280;9205;52.032;4.314;2023-10-31T12:38:23;100218.34;;;14.27
18161;BMP280;9205;52.032;4.314;2023-10-31T12:40:51;100208.72;;;14.15
18161;BMP280;9205;52.032;4.314;2023-10-31T12:43:21;100210.63;;;14.10
18161;BMP280;9205;52.032;4.314;2023-10-31T12:45:48;100204.63;;;14.11
18161;BMP280;9205;52.032;4.314;2023-10-31T12:48:15;100215.47;;;14.16
18161;BMP280;9205;52.032;4.314;2023-10-31T12:50:43;100214.84;;;14.11
18161;BMP280;9205;52.032;4.314;2023-10-31T12:53:10;100214.88;;;14.09
18161;BMP280;9205;52.032;4.314;2023-10-31T12:55:40;100213.13;;;14.11
18161;BMP280;9205;52.032;4.314;2023-10-31T12:58:08;100207.94;;;14.13
18161;BMP280;9205;52.032;4.314;2023-10-31T13:00:37;100219.94;;;14.11
18161;BMP280;9205;52.032;4.314;2023-10-31T13:03:07;100209.28;;;14.21
18161;BMP280;9205;52.032;4.314;2023-10-31T13:05:34;100217.25;;;14.32
18161;BMP280;9205;52.032;4.314;2023-10-31T13:08:02;100216.56;;;14.29
18161;BMP280;9205;52.032;4.314;2023-10-31T13:10:31;100213.41;;;14.24
18161;BMP280;9205;52.032;4.314;2023-10-31T13:12:59;100216.38;;;14.15
18161;BMP280;9205;52.032;4.314;2023-10-31T13:15:26;100225.50;;;14.20
18161;BMP280;9205;52.032;4.314;2023-10-31T13:17:55;100222.25;;;14.17
18161;BMP280;9205;52.032;4.314;2023-10-31T13:20:23;100232.50;;;14.15
18161;BMP280;9205;52.032;4.314;2023-10-31T13:22:50;100231.19;;;14.07
18161;BMP280;9205;52.032;4.314;2023-10-31T13:25:18;100234.06;;;14.00
18161;BMP280;9205;52.032;4.314;2023-10-31T13:27:46;100228.53;;;13.90
18161;BMP280;9205;52.032;4.314;2023-10-31T13:30:17;100234.81;;;13.83
18161;BMP280;9205;52.032;4.314;2023-10-31T13:32:44;100242.88;;;13.74
18161;BMP280;9205;52.032;4.314;2023-10-31T13:35:13;100231.66;;;13.78
18161;BMP280;9205;52.032;4.314;2023-10-31T13:37:40;100242.31;;;13.68
18161;BMP280;9205;52.032;4.314;2023-10-31T13:40:08;100242.44;;;13.65
18161;BMP280;9205;52.032;4.314;2023-10-31T13:42:36;100240.84;;;13.62
18161;BMP280;9205;52.032;4.314;2023-10-31T13:45:04;100240.09;;;13.60
18161;BMP280;9205;52.032;4.314;2023-10-31T13:47:31;100245.31;;;13.57
18161;BMP280;9205;52.032;4.314;2023-10-31T13:49:58;100243.53;;;13.59
18161;BMP280;9205;52.032;4.314;2023-10-31T13:52:27;100254.31;;;13.46
18161;BMP280;9205;52.032;4.314;2023-10-31T13:54:54;100247.63;;;13.43
18161;BMP280;9205;52.032;4.314;2023-10-31T13:57:21;100255.22;;;13.45
18161;BMP280;9205;52.032;4.314;2023-10-31T13:59:50;100252.72;;;13.43
18161;BMP280;9205;52.032;4.314;2023-10-31T14:02:18;100246.84;;;13.41
18161;BMP280;9205;52.032;4.314;2023-10-31T14:04:45;100254.50;;;13.41
18161;BMP280;9205;52.032;4.314;2023-10-31T14:07:20;100256.84;;;13.46
18161;BMP280;9205;52.032;4.314;2023-10-31T14:09:50;100260.25;;;13.46
18161;BMP280;9205;52.032;4.314;2023-10-31T14:12:17;100270.56;;;13.43
18161;BMP280;9205;52.032;4.314;2023-10-31T14:14:44;100272.31;;;13.43
18161;BMP280;9205;52.032;4.314;2023-10-31T14:17:13;100269.16;;;13.36
18161;BMP280;9205;52.032;4.314;2023-10-31T14:19:42;100267.00;;;13.27
18161;BMP280;9205;52.032;4.314;2023-10-31T14:22:11;100277.16;;;13.29